createdAt,value
2019-05-21T00:00:28.411Z,97236.00
2019-05-21T00:02:55.769Z,97233.00
2019-05-21T00:05:23.230Z,97237.00
2019-05-21T00:07:50.377Z,97234.00
2019-05-21T00:10:17.939Z,97238.00
2019-05-21T00:12:45.399Z,97225.00
2019-05-21T00:15:13.260Z,97229.00
2019-05-21T00:17:40.410Z,97232.00
2019-05-21T00:20:08.595Z,97229.00
2019-05-21T00:22:36.218Z,97227.00
2019-05-21T00:25:05.251Z,97230.00
2019-05-21T00:27:32.622Z,97228.00
2019-05-21T00:30:56.270Z,97231.00
2019-05-21T00:34:19.938Z,97235.00
2019-05-21T00:37:42.994Z,97236.00
2019-05-21T00:41:06.050Z,97230.00
2019-05-21T00:43:53.783Z,97235.00
2019-05-21T00:46:21.345Z,97234.00
2019-05-21T00:48:49.205Z,97243.00
2019-05-21T00:51:16.834Z,97247.00
2019-05-21T00:53:44.170Z,97246.00
2019-05-21T00:56:11.565Z,97243.00
2019-05-21T00:58:38.925Z,97245.00
2019-05-21T01:01:06.396Z,97252.00
2019-05-21T01:03:33.861Z,97257.00
2019-05-21T01:06:01.350Z,97253.00
2019-05-21T01:08:28.855Z,97256.00
2019-05-21T01:10:56.456Z,97258.00
2019-05-21T01:13:24.067Z,97246.00
2019-05-21T01:15:51.736Z,97259.00
2019-05-21T01:18:19.015Z,97249.00
2019-05-21T01:20:46.552Z,97258.00
2019-05-21T01:23:14.140Z,97257.00
2019-05-21T01:25:41.759Z,97261.00
2019-05-21T01:28:09.340Z,97253.00
2019-05-21T01:30:37.173Z,97258.00
2019-05-21T01:33:04.745Z,97255.00
2019-05-21T01:35:31.894Z,97253.00
2019-05-21T01:37:59.353Z,97252.00
2019-05-21T01:40:27.074Z,97245.00
2019-05-21T01:42:54.150Z,97257.00
2019-05-21T01:45:21.544Z,97245.00
2019-05-21T01:47:48.958Z,97238.00
2019-05-21T01:50:16.412Z,97245.00
2019-05-21T01:52:44.007Z,97241.00
2019-05-21T01:55:11.549Z,97238.00
2019-05-21T01:57:39.201Z,97236.00
2019-05-21T02:00:07.037Z,97236.00
2019-05-21T02:02:34.564Z,97233.00
2019-05-21T02:05:01.771Z,97232.00
2019-05-21T02:07:29.232Z,97231.00
2019-05-21T02:09:56.960Z,97235.00
2019-05-21T02:12:24.557Z,97236.00
2019-05-21T02:14:51.967Z,97241.00
2019-05-21T02:17:19.570Z,97228.00
2019-05-21T02:19:47.022Z,97233.00
2019-05-21T02:22:14.449Z,97231.00
2019-05-21T02:24:41.934Z,97240.00
2019-05-21T02:27:09.189Z,97244.00
2019-05-21T02:29:36.650Z,97238.00
2019-05-21T02:32:04.511Z,97249.00
2019-05-21T02:34:31.965Z,97253.00
2019-05-21T02:36:59.735Z,97253.00
2019-05-21T02:39:27.160Z,97247.00
2019-05-21T02:41:54.439Z,97249.00
2019-05-21T02:44:21.886Z,97257.00
2019-05-21T02:46:49.448Z,97263.00
2019-05-21T02:49:16.805Z,97260.00
2019-05-21T02:51:44.360Z,97267.00
2019-05-21T02:54:11.547Z,97272.00
2019-05-21T02:56:39.055Z,97269.00
2019-05-21T02:59:06.425Z,97267.00
2019-05-21T03:04:14.661Z,97263.00
2019-05-21T03:06:42.400Z,97261.00
2019-05-21T03:09:09.865Z,97255.00
2019-05-21T03:11:37.336Z,97270.00
2019-05-21T03:14:05.069Z,97261.00
2019-05-21T03:16:32.439Z,97270.00
2019-05-21T03:19:00.007Z,97272.00
2019-05-21T03:21:27.442Z,97275.00
2019-05-21T03:23:54.894Z,97280.00
2019-05-21T03:26:22.056Z,97273.00
2019-05-21T03:28:49.504Z,97270.00
2019-05-21T03:31:17.360Z,97271.00
2019-05-21T03:33:44.949Z,97277.00
2019-05-21T03:36:31.042Z,97279.00
2019-05-21T03:38:41.890Z,97286.00
2019-05-21T03:41:09.268Z,97285.00
2019-05-21T03:43:36.899Z,97290.00
2019-05-21T03:46:04.389Z,97292.00
2019-05-21T03:48:31.921Z,97289.00
2019-05-21T03:50:59.325Z,97290.00
2019-05-21T03:53:26.629Z,97290.00
2019-05-21T03:55:54.509Z,97296.00
2019-05-21T03:58:22.011Z,97294.00
2019-05-21T04:00:49.462Z,97291.00
2019-05-21T04:03:16.977Z,97293.00
2019-05-21T04:05:44.427Z,97293.00
2019-05-21T04:08:11.979Z,97297.00
2019-05-21T04:10:39.431Z,97296.00
2019-05-21T04:13:07.464Z,97302.00
2019-05-21T04:15:39.422Z,97301.00
2019-05-21T04:18:11.531Z,97292.00
2019-05-21T04:20:38.954Z,97298.00
2019-05-21T04:23:06.338Z,97305.00
2019-05-21T04:25:34.040Z,97303.00
2019-05-21T04:28:02.024Z,97300.00
2019-05-21T04:30:29.520Z,97298.00
2019-05-21T04:32:57.054Z,97304.00
2019-05-21T04:35:24.539Z,97303.00
2019-05-21T04:37:52.060Z,97313.00
2019-05-21T04:40:19.668Z,97309.00
2019-05-21T04:42:47.314Z,97308.00
2019-05-21T04:45:14.991Z,97309.00
2019-05-21T04:47:42.497Z,97304.00
2019-05-21T04:50:10.035Z,97303.00
2019-05-21T04:52:37.326Z,97311.00
2019-05-21T04:55:05.836Z,97311.00
2019-05-21T04:57:37.158Z,97305.00
2019-05-21T05:00:04.756Z,97310.00
2019-05-21T05:02:32.200Z,97310.00
2019-05-21T05:04:59.765Z,97315.00
2019-05-21T05:07:28.954Z,97312.00
2019-05-21T05:09:56.719Z,97320.00
2019-05-21T05:12:24.166Z,97321.00
2019-05-21T05:14:51.726Z,97327.00
2019-05-21T05:17:18.910Z,97325.00
2019-05-21T05:19:47.038Z,97324.00
2019-05-21T05:22:14.758Z,97327.00
2019-05-21T05:24:42.249Z,97324.00
2019-05-21T05:27:09.711Z,97333.00
2019-05-21T05:29:37.089Z,97339.00
2019-05-21T05:32:04.759Z,97334.00
2019-05-21T05:34:32.242Z,97334.00
2019-05-21T05:36:59.643Z,97340.00
2019-05-21T05:39:27.108Z,97348.00
2019-05-21T05:41:54.655Z,97345.00
2019-05-21T05:44:22.320Z,97352.00
2019-05-21T05:46:49.780Z,97346.00
2019-05-21T05:49:24.913Z,97353.00
2019-05-21T05:51:52.364Z,97352.00
2019-05-21T05:54:19.778Z,97360.00
2019-05-21T05:56:47.212Z,97364.00
2019-05-21T05:59:14.812Z,97360.00
2019-05-21T06:04:09.269Z,97358.00
2019-05-21T06:06:36.906Z,97364.00
2019-05-21T06:09:05.070Z,97362.00
2019-05-21T06:11:32.376Z,97358.00
2019-05-21T06:13:59.940Z,97359.00
2019-05-21T06:16:27.429Z,97372.00
2019-05-21T06:18:54.960Z,97374.00
2019-05-21T06:21:22.469Z,97367.00
2019-05-21T06:23:49.944Z,97366.00
2019-05-21T06:26:17.414Z,97365.00
2019-05-21T06:28:44.913Z,97367.00
2019-05-21T06:31:12.399Z,97375.00
2019-05-21T06:33:39.927Z,97374.00
2019-05-21T06:36:07.191Z,97372.00
2019-05-21T06:38:34.904Z,97367.00
2019-05-21T06:41:02.566Z,97377.00
2019-05-21T06:43:30.057Z,97382.00
2019-05-21T06:45:57.626Z,97387.00
2019-05-21T06:48:25.185Z,97377.00
2019-05-21T06:50:52.635Z,97377.00
2019-05-21T06:53:19.789Z,97382.00
2019-05-21T06:55:47.510Z,97386.00
2019-05-21T06:58:15.122Z,97376.00
2019-05-21T07:00:42.668Z,97387.00
2019-05-21T07:03:10.424Z,97390.00
2019-05-21T07:05:37.607Z,97389.00
2019-05-21T07:08:05.384Z,97396.00
2019-05-21T07:10:34.159Z,97395.00
2019-05-21T07:13:01.810Z,97392.00
2019-05-21T07:15:29.243Z,97396.00
2019-05-21T07:17:56.709Z,97405.00
2019-05-21T07:20:24.774Z,97399.00
2019-05-21T07:22:52.334Z,97406.00
2019-05-21T07:25:20.024Z,97398.00
2019-05-21T07:27:47.348Z,97399.00
2019-05-21T07:30:15.299Z,97396.00
2019-05-21T07:32:42.681Z,97416.00
2019-05-21T07:35:10.495Z,97420.00
2019-05-21T07:37:38.040Z,97422.00
2019-05-21T07:40:07.402Z,97429.00
2019-05-21T07:42:34.826Z,97431.00
2019-05-21T07:45:02.802Z,97433.00
2019-05-21T07:47:30.387Z,97430.00
2019-05-21T07:49:58.029Z,97434.00
2019-05-21T07:52:26.059Z,97435.00
2019-05-21T07:54:53.664Z,97437.00
2019-05-21T07:57:21.215Z,97438.00
2019-05-21T07:59:48.710Z,97446.00
2019-05-21T08:02:15.928Z,97447.00
2019-05-21T08:04:43.494Z,97446.00
2019-05-21T08:07:11.362Z,97451.00
2019-05-21T08:09:38.624Z,97447.00
2019-05-21T08:12:22.741Z,97447.00
2019-05-21T08:14:35.594Z,97448.00
2019-05-21T08:17:03.131Z,97452.00
2019-05-21T08:19:31.944Z,97458.00
2019-05-21T08:21:59.248Z,97451.00
2019-05-21T08:24:26.609Z,97458.00
2019-05-21T08:26:54.064Z,97458.00
2019-05-21T08:29:21.519Z,97465.00
2019-05-21T08:31:49.083Z,97465.00
2019-05-21T08:34:16.717Z,97465.00
2019-05-21T08:36:44.408Z,97472.00
2019-05-21T08:39:27.424Z,97470.00
2019-05-21T08:41:41.265Z,97482.00
2019-05-21T08:44:08.963Z,97483.00
2019-05-21T08:46:36.504Z,97480.00
2019-05-21T08:49:04.045Z,97484.00
2019-05-21T08:51:32.544Z,97486.00
2019-05-21T08:54:00.003Z,97484.00
2019-05-21T08:56:27.838Z,97487.00
2019-05-21T08:58:56.209Z,97492.00
2019-05-21T09:01:23.958Z,97495.00
2019-05-21T09:03:51.513Z,97498.00
2019-05-21T09:06:19.098Z,97501.00
2019-05-21T09:08:46.650Z,97499.00
2019-05-21T09:11:14.004Z,97517.00
2019-05-21T09:13:41.505Z,97516.00
2019-05-21T09:16:08.990Z,97514.00
2019-05-21T09:18:36.375Z,97521.00
2019-05-21T09:21:04.404Z,97527.00
2019-05-21T09:23:32.010Z,97530.00
2019-05-21T09:25:59.898Z,97522.00
2019-05-21T09:28:27.224Z,97534.00
2019-05-21T09:30:54.879Z,97536.00
2019-05-21T09:33:22.439Z,97543.00
2019-05-21T09:35:49.994Z,97552.00
2019-05-21T09:38:18.252Z,97559.00
2019-05-21T09:40:45.975Z,97558.00
2019-05-21T09:43:13.635Z,97565.00
2019-05-21T09:45:41.364Z,97566.00
2019-05-21T09:48:08.914Z,97577.00
2019-05-21T09:50:36.581Z,97572.00
2019-05-21T09:53:04.000Z,97576.00
2019-05-21T09:55:33.627Z,97583.00
2019-05-21T09:58:11.202Z,97585.00
2019-05-21T10:00:49.427Z,97587.00
2019-05-21T10:03:18.947Z,97583.00
2019-05-21T10:05:46.648Z,97598.00
2019-05-21T10:08:14.118Z,97588.00
2019-05-21T10:10:41.584Z,97594.00
2019-05-21T10:13:09.092Z,97604.00
2019-05-21T10:15:36.528Z,97603.00
2019-05-21T10:18:04.590Z,97610.00
2019-05-21T10:20:32.199Z,97606.00
2019-05-21T10:22:59.723Z,97615.00
2019-05-21T10:25:27.643Z,97604.00
2019-05-21T10:27:55.163Z,97608.00
2019-05-21T10:30:22.657Z,97613.00
2019-05-21T10:32:50.113Z,97623.00
2019-05-21T10:35:17.611Z,97616.00
2019-05-21T10:37:54.360Z,97628.00
2019-05-21T10:40:14.963Z,97632.00
2019-05-21T10:42:42.639Z,97638.00
2019-05-21T10:45:10.524Z,97643.00
2019-05-21T10:47:37.756Z,97653.00
2019-05-21T10:50:07.972Z,97648.00
2019-05-21T10:52:35.433Z,97655.00
2019-05-21T10:55:04.650Z,97652.00
2019-05-21T10:57:32.629Z,97659.00
2019-05-21T11:00:00.169Z,97653.00
2019-05-21T11:02:32.160Z,97650.00
2019-05-21T11:05:10.665Z,97660.00
2019-05-21T11:07:38.233Z,97660.00
2019-05-21T11:10:08.408Z,97663.00
2019-05-21T11:12:35.789Z,97671.00
2019-05-21T11:15:06.599Z,97673.00
2019-05-21T11:17:48.276Z,97674.00
2019-05-21T11:20:05.768Z,97674.00
2019-05-21T11:22:33.193Z,97673.00
2019-05-21T11:25:00.479Z,97674.00
2019-05-21T11:27:27.986Z,97681.00
2019-05-21T11:29:55.540Z,97687.00
2019-05-21T11:32:23.104Z,97691.00
2019-05-21T11:34:50.844Z,97693.00
2019-05-21T11:37:18.375Z,97689.00
2019-05-21T11:39:46.119Z,97699.00
2019-05-21T11:42:13.634Z,97709.00
2019-05-21T11:44:40.999Z,97704.00
2019-05-21T11:47:08.752Z,97716.00
2019-05-21T11:49:36.301Z,97705.00
2019-05-21T11:52:04.201Z,97714.00
2019-05-21T11:54:31.870Z,97711.00
2019-05-21T11:56:59.507Z,97714.00
2019-05-21T11:59:26.810Z,97719.00
2019-05-21T12:01:54.317Z,97729.00
2019-05-21T12:04:21.980Z,97726.00
2019-05-21T12:06:49.524Z,97718.00
2019-05-21T12:09:16.993Z,97726.00
2019-05-21T12:11:44.953Z,97736.00
2019-05-21T12:14:12.617Z,97725.00
2019-05-21T12:16:40.176Z,97733.00
2019-05-21T12:19:08.629Z,97730.00
2019-05-21T12:21:36.041Z,97736.00
2019-05-21T12:24:03.672Z,97743.00
2019-05-21T12:26:31.487Z,97740.00
2019-05-21T12:28:59.298Z,97738.00
2019-05-21T12:31:26.627Z,97744.00
2019-05-21T12:33:54.020Z,97748.00
2019-05-21T12:36:21.474Z,97745.00
2019-05-21T12:38:48.915Z,97750.00
2019-05-21T12:41:16.166Z,97755.00
2019-05-21T12:43:43.652Z,97759.00
2019-05-21T12:46:11.375Z,97765.00
2019-05-21T12:48:38.538Z,97767.00
2019-05-21T12:51:05.992Z,97769.00
2019-05-21T12:53:33.339Z,97770.00
2019-05-21T12:56:00.889Z,97772.00
2019-05-21T12:58:28.335Z,97767.00
2019-05-21T13:00:55.822Z,97777.00
2019-05-21T13:03:23.207Z,97771.00
2019-05-21T13:05:50.752Z,97769.00
2019-05-21T13:08:18.185Z,97770.00
2019-05-21T13:10:45.656Z,97774.00
2019-05-21T13:13:13.356Z,97776.00
2019-05-21T13:15:40.905Z,97778.00
2019-05-21T13:18:08.385Z,97772.00
2019-05-21T13:20:36.060Z,97784.00
2019-05-21T13:23:03.669Z,97782.00
2019-05-21T13:25:31.410Z,97783.00
2019-05-21T13:27:58.890Z,97786.00
2019-05-21T13:30:27.071Z,97787.00
2019-05-21T13:32:54.470Z,97796.00
2019-05-21T13:35:21.997Z,97797.00
2019-05-21T13:37:49.705Z,97797.00
2019-05-21T13:40:18.681Z,97800.00
2019-05-21T13:42:46.125Z,97797.00
2019-05-21T13:45:13.712Z,97800.00
2019-05-21T13:47:41.164Z,97803.00
2019-05-21T13:50:09.652Z,97799.00
2019-05-21T13:52:37.209Z,97795.00
2019-05-21T13:55:07.966Z,97796.00
2019-05-21T13:57:35.965Z,97802.00
2019-05-21T14:00:10.928Z,97795.00
2019-05-21T14:02:40.321Z,97793.00
2019-05-21T14:05:09.391Z,97790.00
2019-05-21T14:07:37.311Z,97794.00
2019-05-21T14:10:19.493Z,97795.00
2019-05-21T14:12:36.484Z,97791.00
2019-05-21T14:15:05.294Z,97800.00
2019-05-21T14:17:32.854Z,97803.00
2019-05-21T14:20:00.490Z,97810.00
2019-05-21T14:22:28.077Z,97806.00
2019-05-21T14:24:56.128Z,97807.00
2019-05-21T14:27:23.685Z,97799.00
2019-05-21T14:29:51.192Z,97810.00
2019-05-21T14:32:18.841Z,97812.00
2019-05-21T14:35:00.200Z,97814.00
2019-05-21T14:37:15.735Z,97814.00
2019-05-21T14:39:43.332Z,97816.00
2019-05-21T14:42:10.798Z,97820.00
2019-05-21T14:44:38.045Z,97817.00
2019-05-21T14:47:05.605Z,97810.00
2019-05-21T14:49:33.324Z,97817.00
2019-05-21T14:52:00.813Z,97805.00
2019-05-21T14:54:28.420Z,97815.00
2019-05-21T14:56:55.826Z,97815.00
2019-05-21T14:59:24.932Z,97810.00
2019-05-21T15:01:52.229Z,97809.00
2019-05-21T15:04:20.005Z,97811.00
2019-05-21T15:06:47.527Z,97810.00
2019-05-21T15:09:14.966Z,97817.00
2019-05-21T15:11:42.421Z,97807.00
2019-05-21T15:14:10.230Z,97808.00
2019-05-21T15:16:37.641Z,97806.00
2019-05-21T15:19:05.776Z,97803.00
2019-05-21T15:21:35.207Z,97813.00
2019-05-21T15:24:03.276Z,97813.00
2019-05-21T15:26:31.145Z,97809.00
2019-05-21T15:29:00.034Z,97814.00
2019-05-21T15:31:27.595Z,97817.00
2019-05-21T15:33:55.152Z,97819.00
2019-05-21T15:36:22.420Z,97815.00
2019-05-21T15:38:51.180Z,97827.00
2019-05-21T15:41:18.879Z,97819.00
2019-05-21T15:43:46.720Z,97821.00
2019-05-21T15:46:14.225Z,97818.00
2019-05-21T15:48:41.688Z,97822.00
2019-05-21T15:51:09.071Z,97821.00
2019-05-21T15:53:36.158Z,97834.00
2019-05-21T15:56:03.578Z,97830.00
2019-05-21T15:58:30.792Z,97832.00
2019-05-21T16:00:58.024Z,97831.00
2019-05-21T16:03:25.146Z,97826.00
2019-05-21T16:05:52.457Z,97829.00
2019-05-21T16:08:19.946Z,97837.00
2019-05-21T16:10:47.252Z,97835.00
2019-05-21T16:13:14.577Z,97836.00
2019-05-21T16:15:41.903Z,97836.00
2019-05-21T16:18:09.456Z,97830.00
2019-05-21T16:20:36.641Z,97832.00
2019-05-21T16:23:03.998Z,97835.00
2019-05-21T16:25:31.303Z,97836.00
2019-05-21T16:27:58.662Z,97844.00
2019-05-21T16:30:26.055Z,97839.00
2019-05-21T16:32:53.378Z,97841.00
2019-05-21T16:35:20.502Z,97844.00
2019-05-21T16:37:47.747Z,97845.00
2019-05-21T16:40:16.446Z,97851.00
2019-05-21T16:42:43.811Z,97842.00
2019-05-21T16:45:11.473Z,97845.00
2019-05-21T16:47:46.074Z,97844.00
2019-05-21T16:50:10.568Z,97847.00
2019-05-21T16:52:38.355Z,97857.00
2019-05-21T16:55:05.757Z,97856.00
2019-05-21T16:57:33.118Z,97861.00
2019-05-21T17:00:00.405Z,97862.00
2019-05-21T17:02:28.142Z,97862.00
2019-05-21T17:04:55.560Z,97869.00
2019-05-21T17:07:23.196Z,97860.00
2019-05-21T17:09:51.147Z,97863.00
2019-05-21T17:12:19.310Z,97873.00
2019-05-21T17:14:49.818Z,97862.00
2019-05-21T17:17:16.504Z,97875.00
2019-05-21T17:19:44.082Z,97880.00
2019-05-21T17:22:11.198Z,97871.00
2019-05-21T17:24:39.168Z,97878.00
2019-05-21T17:27:06.314Z,97880.00
2019-05-21T17:29:33.757Z,97876.00
2019-05-21T17:32:01.066Z,97874.00
2019-05-21T17:34:28.566Z,97885.00
2019-05-21T17:36:56.365Z,97880.00
2019-05-21T17:39:23.707Z,97876.00
2019-05-21T17:41:51.136Z,97881.00
2019-05-21T17:44:18.831Z,97892.00
2019-05-21T17:46:46.492Z,97894.00
2019-05-21T17:49:14.094Z,97893.00
2019-05-21T17:51:41.410Z,97897.00
2019-05-21T17:54:08.634Z,97904.00
2019-05-21T17:56:36.547Z,97895.00
2019-05-21T17:59:03.918Z,97896.00
2019-05-21T18:01:32.448Z,97900.00
2019-05-21T18:04:00.297Z,97905.00
2019-05-21T18:06:28.579Z,97901.00
2019-05-21T18:08:55.974Z,97909.00
2019-05-21T18:11:23.489Z,97911.00
2019-05-21T18:13:51.140Z,97900.00
2019-05-21T18:16:20.147Z,97917.00
2019-05-21T18:18:47.725Z,97907.00
2019-05-21T18:21:16.105Z,97910.00
2019-05-21T18:23:43.640Z,97906.00
2019-05-21T18:26:11.195Z,97906.00
2019-05-21T18:28:38.770Z,97912.00
2019-05-21T18:31:06.905Z,97909.00
2019-05-21T18:33:34.715Z,97919.00
2019-05-21T18:36:02.624Z,97915.00
2019-05-21T18:38:30.735Z,97930.00
2019-05-21T18:40:58.412Z,97930.00
2019-05-21T18:43:26.053Z,97927.00
2019-05-21T18:45:53.510Z,97927.00
2019-05-21T18:48:21.065Z,97938.00
2019-05-21T18:50:48.723Z,97937.00
2019-05-21T18:53:16.240Z,97938.00
2019-05-21T18:55:43.823Z,97942.00
2019-05-21T18:58:11.640Z,97941.00
2019-05-21T19:00:39.270Z,97944.00
2019-05-21T19:03:06.735Z,97944.00
2019-05-21T19:05:34.270Z,97951.00
2019-05-21T19:08:02.464Z,97953.00
2019-05-21T19:10:30.016Z,97953.00
2019-05-21T19:13:00.671Z,97953.00
2019-05-21T19:15:26.381Z,97961.00
2019-05-21T19:17:53.803Z,97966.00
2019-05-21T19:20:21.372Z,97967.00
2019-05-21T19:22:49.646Z,97971.00
2019-05-21T19:25:17.772Z,97970.00
2019-05-21T19:27:45.074Z,97968.00
2019-05-21T19:30:14.936Z,97982.00
2019-05-21T19:32:42.649Z,97982.00
2019-05-21T19:35:11.456Z,97986.00
2019-05-21T19:37:38.543Z,97991.00
2019-05-21T19:40:06.785Z,97991.00
2019-05-21T19:42:34.907Z,97991.00
2019-05-21T19:45:04.864Z,97990.00
2019-05-21T19:47:32.330Z,97993.00
2019-05-21T19:49:59.958Z,97991.00
2019-05-21T19:54:57.222Z,97996.00
2019-05-21T19:57:27.128Z,97990.00
2019-05-21T19:59:54.588Z,97998.00
2019-05-21T20:02:22.169Z,98002.00
2019-05-21T20:04:49.879Z,98001.00
2019-05-21T20:07:19.328Z,98003.00
2019-05-21T20:09:48.607Z,98004.00
2019-05-21T20:12:15.821Z,98008.00
2019-05-21T20:14:44.035Z,98004.00
2019-05-21T20:17:13.579Z,98001.00
2019-05-21T20:19:43.351Z,98007.00
2019-05-21T20:22:11.869Z,98002.00
2019-05-21T20:24:40.523Z,98003.00
2019-05-21T20:27:08.289Z,98001.00
2019-05-21T20:29:36.014Z,98001.00
2019-05-21T20:32:05.462Z,98003.00
2019-05-21T20:34:33.409Z,98008.00
2019-05-21T20:37:01.770Z,98004.00
2019-05-21T20:39:30.280Z,98008.00
2019-05-21T20:41:58.607Z,98011.00
2019-05-21T20:44:26.789Z,98009.00
2019-05-21T20:46:56.427Z,98014.00
2019-05-21T20:49:24.784Z,98012.00
2019-05-21T20:51:52.399Z,98018.00
2019-05-21T20:54:21.984Z,98024.00
2019-05-21T20:56:50.825Z,98025.00
2019-05-21T20:59:18.424Z,98021.00
2019-05-21T21:01:46.281Z,98015.00
2019-05-21T21:04:13.781Z,98014.00
2019-05-21T21:06:41.402Z,98016.00
2019-05-21T21:09:09.964Z,98009.00
2019-05-21T21:11:38.453Z,98017.00
2019-05-21T21:14:17.440Z,98027.00
2019-05-21T21:16:37.262Z,98023.00
2019-05-21T21:19:05.237Z,98022.00
2019-05-21T21:21:33.761Z,98028.00
2019-05-21T21:24:02.725Z,98024.00
2019-05-21T21:26:30.671Z,98026.00
2019-05-21T21:28:58.965Z,98031.00
2019-05-21T21:31:26.799Z,98029.00
2019-05-21T21:33:54.266Z,98029.00
2019-05-21T21:36:21.831Z,98027.00
2019-05-21T21:38:49.375Z,98026.00
2019-05-21T21:41:17.757Z,98025.00
2019-05-21T21:43:45.245Z,98029.00
2019-05-21T21:46:12.873Z,98023.00
2019-05-21T21:48:41.564Z,98028.00
2019-05-21T21:51:09.491Z,98028.00
2019-05-21T21:53:38.206Z,98037.00
2019-05-21T21:56:05.577Z,98032.00
2019-05-21T21:58:33.213Z,98031.00
2019-05-21T22:01:33.320Z,98038.00
2019-05-21T22:04:04.017Z,98038.00
2019-05-21T22:06:34.824Z,98025.00
2019-05-21T22:09:05.033Z,98032.00
2019-05-21T22:11:33.324Z,98023.00
2019-05-21T22:14:02.070Z,98038.00
2019-05-21T22:16:30.742Z,98028.00
2019-05-21T22:18:58.632Z,98023.00
2019-05-21T22:21:26.723Z,98025.00
2019-05-21T22:23:56.004Z,98025.00
2019-05-21T22:26:24.011Z,98024.00
2019-05-21T22:28:51.403Z,98018.00
2019-05-21T22:31:19.067Z,98025.00
2019-05-21T22:33:46.994Z,98026.00
2019-05-21T22:36:14.780Z,98018.00
2019-05-21T22:38:43.109Z,98018.00
2019-05-21T22:41:10.493Z,98028.00
2019-05-21T22:43:38.397Z,98031.00
2019-05-21T22:46:06.203Z,98025.00
2019-05-21T22:48:33.688Z,98030.00
2019-05-21T22:51:01.649Z,98023.00
2019-05-21T22:53:28.854Z,98029.00
2019-05-21T22:55:56.775Z,98031.00
2019-05-21T22:58:24.299Z,98026.00
2019-05-21T23:00:52.854Z,98028.00
2019-05-21T23:03:20.714Z,98024.00
2019-05-21T23:05:48.449Z,98025.00
2019-05-21T23:08:16.840Z,98028.00
2019-05-21T23:10:44.034Z,98024.00
2019-05-21T23:13:11.539Z,98025.00
2019-05-21T23:15:39.154Z,98026.00
2019-05-21T23:18:06.626Z,98028.00
2019-05-21T23:20:36.113Z,98026.00
2019-05-21T23:23:04.485Z,98027.00
2019-05-21T23:25:34.196Z,98028.00
2019-05-21T23:28:02.383Z,98034.00
2019-05-21T23:30:29.929Z,98026.00
2019-05-21T23:32:57.260Z,98024.00
2019-05-21T23:35:26.009Z,98025.00
2019-05-21T23:37:55.993Z,98025.00
2019-05-21T23:40:25.475Z,98029.00
2019-05-21T23:42:53.159Z,98025.00
2019-05-21T23:45:20.705Z,98024.00
2019-05-21T23:47:48.635Z,98017.00
2019-05-21T23:50:17.934Z,98022.00
2019-05-21T23:52:46.342Z,98024.00
2019-05-21T23:55:14.685Z,98026.00
2019-05-21T23:57:43.569Z,98026.00
